createdAt,value
2023-05-13T00:01:53.479Z,4.17
2023-05-13T00:04:56.311Z,4.30
2023-05-13T00:08:02.054Z,3.58
2023-05-13T00:11:05.050Z,3.97
2023-05-13T00:14:09.729Z,3.17
2023-05-13T00:17:12.301Z,2.87
2023-05-13T00:20:14.792Z,3.07
2023-05-13T00:23:18.819Z,5.67
2023-05-13T00:26:21.652Z,3.00
2023-05-13T00:29:24.255Z,4.32
2023-05-13T00:32:26.977Z,3.33
2023-05-13T00:35:29.597Z,7.97
2023-05-13T00:38:33.741Z,2.92
2023-05-13T00:41:36.246Z,2.87
2023-05-13T00:44:38.827Z,3.20
2023-05-13T00:47:41.601Z,2.83
2023-05-13T00:50:44.735Z,4.47
2023-05-13T00:53:48.726Z,2.85
2023-05-13T00:56:54.358Z,2.97
2023-05-13T00:59:57.013Z,4.20
2023-05-13T01:03:04.137Z,2.85
2023-05-13T01:06:12.132Z,2.87
2023-05-13T01:09:19.808Z,6.20
2023-05-13T01:12:23.462Z,2.73
2023-05-13T01:15:27.557Z,4.30
2023-05-13T01:18:35.013Z,2.60
2023-05-13T01:21:39.995Z,3.03
2023-05-13T01:24:42.615Z,2.43
2023-05-13T01:27:45.271Z,3.53
2023-05-13T01:30:48.141Z,2.95
2023-05-13T01:33:51.279Z,4.22
2023-05-13T01:36:55.418Z,3.83
2023-05-13T01:39:57.994Z,4.70
2023-05-13T01:43:00.546Z,2.57
2023-05-13T01:46:03.307Z,3.53
2023-05-13T01:49:07.725Z,5.80
2023-05-13T01:52:11.525Z,2.47
2023-05-13T01:55:14.059Z,3.80
2023-05-13T01:58:16.518Z,3.60
2023-05-13T02:01:21.094Z,2.77
2023-05-13T02:04:24.897Z,3.63
2023-05-13T02:07:28.760Z,3.03
2023-05-13T02:10:31.287Z,3.30
2023-05-13T02:13:33.834Z,3.03
2023-05-13T02:16:36.414Z,2.57
2023-05-13T02:19:38.944Z,2.97
2023-05-13T02:22:42.810Z,3.83
2023-05-13T02:25:45.630Z,3.03
2023-05-13T02:28:49.099Z,3.83
2023-05-13T02:31:51.883Z,2.25
2023-05-13T02:34:54.413Z,5.50
2023-05-13T02:37:58.951Z,3.27
2023-05-13T02:41:01.955Z,2.47
2023-05-13T02:44:04.870Z,3.00
2023-05-13T02:47:07.663Z,2.78
2023-05-13T02:50:12.416Z,3.10
2023-05-13T02:53:16.455Z,4.80
2023-05-13T02:56:19.465Z,2.37
2023-05-13T02:59:21.936Z,4.28
2023-05-13T03:02:24.743Z,2.90
2023-05-13T03:05:29.757Z,2.80
2023-05-13T03:08:34.062Z,2.93
2023-05-13T03:11:36.701Z,5.37
2023-05-13T03:14:40.095Z,2.47
2023-05-13T03:17:44.281Z,2.70
2023-05-13T03:20:46.834Z,4.47
2023-05-13T03:23:50.755Z,4.40
2023-05-13T03:26:53.345Z,5.30
2023-05-13T03:29:56.087Z,4.03
2023-05-13T03:32:58.887Z,4.05
2023-05-13T03:36:01.482Z,4.95
2023-05-13T03:39:05.391Z,2.67
2023-05-13T03:42:08.207Z,2.53
2023-05-13T03:45:11.687Z,2.58
2023-05-13T03:48:14.267Z,1.95
2023-05-13T03:51:16.871Z,3.33
2023-05-13T03:54:20.798Z,5.30
2023-05-13T03:57:23.467Z,4.53
2023-05-13T04:00:26.095Z,4.55
2023-05-13T04:03:28.640Z,3.83
2023-05-13T04:06:31.789Z,4.60
2023-05-13T04:09:35.697Z,2.50
2023-05-13T04:12:38.751Z,2.63
2023-05-13T04:15:41.590Z,4.90
2023-05-13T04:18:44.408Z,3.83
2023-05-13T04:21:46.889Z,3.42
2023-05-13T04:24:52.078Z,4.17
2023-05-13T04:27:54.675Z,3.90
2023-05-13T04:30:57.537Z,9.20
2023-05-13T04:34:00.135Z,2.90
2023-05-13T04:37:02.834Z,2.60
2023-05-13T04:40:08.330Z,2.42
2023-05-13T04:43:11.002Z,5.03
2023-05-13T04:46:13.613Z,2.67
2023-05-13T04:49:16.259Z,2.28
2023-05-13T04:52:19.586Z,3.67
2023-05-13T04:55:23.554Z,4.15
2023-05-13T04:58:26.126Z,2.80
2023-05-13T05:01:29.138Z,4.03
2023-05-13T05:04:31.841Z,4.05
2023-05-13T05:07:34.927Z,4.77
2023-05-13T05:10:38.727Z,5.15
2023-05-13T05:13:41.513Z,3.37
2023-05-13T05:16:44.006Z,3.00
2023-05-13T05:19:46.548Z,3.03
2023-05-13T05:22:50.183Z,5.70
2023-05-13T05:26:04.220Z,2.50
2023-05-13T05:29:10.911Z,2.97
2023-05-13T05:32:13.532Z,2.88
2023-05-13T05:35:17.037Z,6.73
2023-05-13T05:41:23.655Z,2.67
2023-05-13T05:44:26.237Z,2.40
2023-05-13T05:47:28.883Z,4.17
2023-05-13T05:50:32.150Z,3.05
2023-05-13T05:53:37.506Z,4.18
2023-05-13T05:56:41.448Z,4.03
2023-05-13T05:59:44.104Z,4.20
2023-05-13T06:02:46.851Z,3.10
2023-05-13T06:05:49.438Z,2.60
2023-05-13T06:08:52.095Z,3.87
2023-05-13T06:11:55.980Z,3.42
2023-05-13T06:14:58.600Z,4.47
2023-05-13T06:18:04.687Z,3.83
2023-05-13T06:21:07.243Z,5.37
2023-05-13T06:24:09.925Z,5.30
2023-05-13T06:27:13.763Z,3.42
2023-05-13T06:30:16.391Z,3.47
2023-05-13T06:33:19.125Z,6.00
2023-05-13T06:36:21.856Z,4.28
2023-05-13T06:39:24.443Z,4.53
2023-05-13T06:42:29.204Z,3.05
2023-05-13T06:45:31.854Z,4.73
2023-05-13T06:48:34.492Z,2.57
2023-05-13T06:51:37.680Z,5.05
2023-05-13T06:54:40.358Z,6.60
2023-05-13T06:57:46.626Z,3.30
2023-05-13T07:00:49.534Z,2.80
2023-05-13T07:03:52.374Z,5.97
2023-05-13T07:06:55.280Z,2.20
2023-05-13T07:09:57.920Z,3.55
2023-05-13T07:13:02.018Z,4.60
2023-05-13T07:16:04.996Z,4.23
2023-05-13T07:19:07.757Z,4.40
2023-05-13T07:22:10.511Z,4.18
2023-05-13T07:25:13.518Z,5.57
2023-05-13T07:28:17.437Z,6.80
2023-05-13T07:31:20.445Z,6.10
2023-05-13T07:34:23.292Z,4.70
2023-05-13T07:37:25.891Z,4.45
2023-05-13T07:40:28.567Z,4.68
2023-05-13T07:43:34.934Z,3.22
2023-05-13T07:46:37.606Z,3.80
2023-05-13T07:49:40.242Z,4.95
2023-05-13T07:52:43.257Z,3.65
2023-05-13T07:55:45.732Z,7.82
2023-05-13T07:58:50.326Z,6.60
2023-05-13T08:01:52.977Z,6.27
2023-05-13T08:04:55.664Z,6.13
2023-05-13T08:07:59.309Z,4.78
2023-05-13T08:11:01.881Z,5.10
2023-05-13T08:14:07.212Z,4.70
2023-05-13T08:17:09.769Z,6.07
2023-05-13T08:20:15.064Z,4.15
2023-05-13T08:23:17.687Z,2.73
2023-05-13T08:26:20.497Z,3.33
2023-05-13T08:29:24.447Z,3.38
2023-05-13T08:32:27.002Z,6.50
2023-05-13T08:35:29.812Z,3.78
2023-05-13T08:38:33.468Z,3.30
2023-05-13T08:41:36.536Z,4.23
2023-05-13T08:44:41.157Z,4.75
2023-05-13T08:47:51.482Z,3.47
2023-05-13T08:50:54.138Z,5.10
2023-05-13T08:53:57.457Z,3.97
2023-05-13T08:57:00.033Z,2.70
2023-05-13T09:00:04.702Z,3.83
2023-05-13T09:03:07.707Z,3.17
2023-05-13T09:06:10.287Z,4.70
2023-05-13T09:09:12.978Z,4.70
2023-05-13T09:12:45.470Z,3.45
2023-05-13T09:15:51.562Z,3.80
2023-05-13T09:18:58.848Z,4.63
2023-05-13T09:22:01.485Z,4.13
2023-05-13T09:25:04.516Z,3.80
2023-05-13T09:28:08.437Z,2.05
2023-05-13T09:31:12.549Z,3.90
2023-05-13T09:34:15.442Z,3.33
2023-05-13T09:37:19.282Z,5.20
2023-05-13T09:40:22.211Z,2.87
2023-05-13T09:43:27.655Z,4.80
2023-05-13T09:46:32.149Z,4.67
2023-05-13T09:49:35.064Z,3.03
2023-05-13T09:52:38.328Z,2.97
2023-05-13T09:58:52.402Z,3.50
2023-05-13T10:02:00.029Z,3.67
2023-05-13T10:05:02.999Z,3.70
2023-05-13T10:08:06.367Z,3.40
2023-05-13T10:14:12.224Z,5.70
2023-05-13T10:17:16.387Z,4.10
2023-05-13T10:20:19.194Z,4.50
2023-05-13T10:23:22.536Z,2.53
2023-05-13T10:29:27.611Z,3.23
2023-05-13T10:32:32.019Z,3.45
2023-05-13T10:35:40.370Z,3.07
2023-05-13T10:38:54.809Z,4.27
2023-05-13T10:42:21.149Z,2.35
2023-05-13T10:45:26.921Z,6.20
2023-05-13T10:48:39.563Z,3.20
2023-05-13T10:51:45.928Z,4.83
2023-05-13T10:55:01.287Z,4.57
2023-05-13T10:58:12.159Z,4.33
2023-05-13T11:01:16.850Z,4.27
2023-05-13T11:04:22.219Z,4.97
2023-05-13T11:07:24.847Z,3.50
2023-05-13T11:10:29.931Z,5.22
2023-05-13T11:13:38.330Z,6.20
2023-05-13T11:16:46.804Z,5.77
2023-05-13T11:19:51.996Z,4.80
2023-05-13T11:22:54.729Z,4.90
2023-05-13T11:26:17.107Z,3.58
2023-05-13T11:29:30.859Z,3.37
2023-05-13T11:32:58.251Z,4.40
2023-05-13T11:36:04.793Z,5.17
2023-05-13T11:39:10.987Z,3.53
2023-05-13T11:42:13.602Z,2.57
2023-05-13T11:45:17.645Z,3.30
2023-05-13T11:48:22.072Z,5.13
2023-05-13T11:51:26.272Z,3.43
2023-05-13T11:54:28.887Z,7.73
2023-05-13T11:57:33.139Z,4.82
2023-05-13T12:00:36.043Z,4.10
2023-05-13T12:03:38.552Z,2.17
2023-05-13T12:06:46.664Z,5.15
2023-05-13T12:09:49.387Z,2.60
2023-05-13T12:12:52.198Z,2.17
2023-05-13T12:15:55.788Z,3.78
2023-05-13T12:19:00.756Z,3.70
2023-05-13T12:22:06.577Z,2.87
2023-05-13T12:25:41.389Z,4.97
2023-05-13T12:28:44.047Z,2.70
2023-05-13T12:32:04.297Z,2.45
2023-05-13T12:35:13.585Z,3.50
2023-05-13T12:38:18.648Z,6.03
2023-05-13T12:41:22.751Z,4.33
2023-05-13T12:44:26.699Z,3.73
2023-05-13T12:47:29.323Z,3.60
2023-05-13T12:50:31.892Z,2.75
2023-05-13T12:53:35.843Z,1.67
2023-05-13T12:56:40.024Z,2.90
2023-05-13T12:59:42.763Z,5.03
2023-05-13T13:02:45.688Z,3.42
2023-05-13T13:05:48.339Z,3.30
2023-05-13T13:08:52.416Z,2.92
2023-05-13T13:11:55.040Z,3.57
2023-05-13T13:14:58.036Z,2.42
2023-05-13T13:18:00.769Z,4.22
2023-05-13T13:21:05.248Z,3.03
2023-05-13T13:24:09.477Z,4.27
2023-05-13T13:27:12.458Z,1.83
2023-05-13T13:30:15.706Z,2.20
2023-05-13T13:36:20.836Z,4.13
2023-05-13T13:39:24.837Z,4.72
2023-05-13T13:42:40.238Z,3.30
2023-05-13T13:45:46.425Z,2.27
2023-05-13T13:48:48.983Z,2.50
2023-05-13T13:51:51.940Z,2.45
2023-05-13T13:54:56.020Z,2.33
2023-05-13T13:57:58.689Z,1.93
2023-05-13T14:01:01.883Z,2.28
2023-05-13T14:07:16.866Z,5.73
2023-05-13T14:10:21.026Z,4.18
2023-05-13T14:13:23.743Z,2.23
2023-05-13T14:16:26.385Z,4.32
2023-05-13T14:19:29.036Z,2.22
2023-05-13T14:22:31.660Z,2.78
2023-05-13T14:25:36.477Z,2.42
2023-05-13T14:28:39.046Z,4.07
2023-05-13T14:31:41.606Z,2.58
2023-05-13T14:34:44.437Z,3.15
2023-05-13T14:37:46.908Z,4.95
2023-05-13T14:40:50.759Z,5.40
2023-05-13T14:43:53.326Z,5.17
2023-05-13T14:46:56.056Z,3.20
2023-05-13T14:49:58.759Z,3.10
2023-05-13T14:53:01.348Z,4.88
2023-05-13T14:56:05.927Z,6.85
2023-05-13T14:59:08.696Z,4.50
2023-05-13T15:02:13.649Z,5.72
2023-05-13T15:08:43.282Z,6.13
2023-05-13T15:11:47.222Z,4.55
2023-05-13T15:14:53.174Z,5.20
2023-05-13T15:17:56.874Z,6.00
2023-05-13T15:20:59.624Z,5.50
2023-05-13T15:24:02.226Z,4.85
2023-05-13T15:27:06.842Z,6.50
2023-05-13T15:30:09.885Z,3.80
2023-05-13T15:33:12.501Z,2.17
2023-05-13T15:36:15.071Z,2.67
2023-05-13T15:39:17.699Z,5.32
2023-05-13T15:42:21.595Z,6.32
2023-05-13T15:45:24.121Z,3.57
2023-05-13T15:48:30.910Z,3.85
2023-05-13T15:51:33.682Z,6.30
2023-05-13T15:54:36.200Z,2.83
2023-05-13T15:57:40.743Z,4.22
2023-05-13T16:00:44.179Z,3.77
2023-05-13T16:03:47.202Z,3.90
2023-05-13T16:06:49.747Z,3.83
2023-05-13T16:09:52.800Z,4.82
2023-05-13T16:12:56.654Z,3.80
2023-05-13T16:15:59.200Z,4.00
2023-05-13T16:22:33.476Z,4.27
2023-05-13T16:25:36.003Z,3.80
2023-05-13T16:28:40.202Z,4.60
2023-05-13T16:31:42.726Z,4.00
2023-05-13T16:34:45.471Z,3.47
2023-05-13T16:37:48.284Z,5.57
2023-05-13T16:40:50.990Z,3.78
2023-05-13T16:43:54.860Z,4.63
2023-05-13T16:46:57.378Z,4.17
2023-05-13T16:49:59.938Z,3.45
2023-05-13T16:53:02.449Z,4.05
2023-05-13T16:56:05.581Z,4.63
2023-05-13T16:59:13.337Z,5.28
2023-05-13T17:02:15.981Z,3.63
2023-05-13T17:05:19.048Z,5.72
2023-05-13T17:08:24.228Z,4.43
2023-05-13T17:11:26.980Z,4.03
2023-05-13T17:14:31.170Z,3.88
2023-05-13T17:17:33.702Z,3.77
2023-05-13T17:20:36.285Z,3.50
2023-05-13T17:23:38.837Z,4.15
2023-05-13T17:26:41.307Z,4.07
2023-05-13T17:29:45.098Z,3.80
2023-05-13T17:32:47.835Z,3.03
2023-05-13T17:35:50.683Z,3.40
2023-05-13T17:38:53.323Z,6.60
2023-05-13T17:41:55.955Z,3.78
2023-05-13T17:45:01.051Z,6.25
2023-05-13T17:48:04.100Z,2.40
2023-05-13T17:51:06.699Z,3.97
2023-05-13T17:54:11.243Z,4.88
2023-05-13T17:57:14.348Z,4.73
2023-05-13T18:00:18.990Z,7.03
2023-05-13T18:03:22.641Z,4.20
2023-05-13T18:06:25.389Z,5.40
2023-05-13T18:09:28.120Z,4.35
2023-05-13T18:12:30.710Z,3.75
2023-05-13T18:15:34.656Z,2.40
2023-05-13T18:18:37.307Z,4.03
2023-05-13T18:21:39.928Z,4.10
2023-05-13T18:24:42.394Z,2.55
2023-05-13T18:27:45.069Z,3.20
2023-05-13T18:30:48.914Z,3.47
2023-05-13T18:33:51.427Z,3.60
2023-05-13T18:36:54.199Z,4.25
2023-05-13T18:39:57.450Z,3.08
2023-05-13T18:43:00.010Z,6.57
2023-05-13T18:46:04.016Z,4.22
2023-05-13T18:49:06.590Z,2.90
2023-05-13T18:52:09.117Z,2.72
2023-05-13T18:55:11.642Z,2.80
2023-05-13T18:58:14.499Z,5.22
2023-05-13T19:01:18.591Z,3.63
2023-05-13T19:04:21.429Z,3.93
2023-05-13T19:07:24.190Z,3.15
2023-05-13T19:10:26.760Z,5.20
2023-05-13T19:13:45.768Z,5.97
2023-05-13T19:16:51.022Z,6.20
2023-05-13T19:19:53.539Z,5.80
2023-05-13T19:22:56.014Z,13.03
2023-05-13T19:25:59.008Z,7.73
2023-05-13T19:32:06.545Z,7.23
2023-05-13T19:35:10.360Z,7.73
2023-05-13T19:38:13.119Z,7.23
2023-05-13T19:41:15.783Z,8.15
2023-05-13T19:44:18.364Z,7.97
2023-05-13T19:47:22.321Z,11.13
2023-05-13T19:50:25.271Z,8.37
2023-05-13T19:53:27.983Z,6.13
2023-05-13T19:56:31.556Z,6.78
2023-05-13T20:02:39.831Z,6.77
2023-05-13T20:05:42.578Z,7.40
2023-05-13T20:08:45.236Z,10.25
2023-05-13T20:11:47.753Z,5.57
2023-05-13T20:14:51.862Z,7.77
2023-05-13T20:17:56.121Z,8.07
2023-05-13T20:20:58.796Z,9.73
2023-05-13T20:24:01.472Z,8.10
2023-05-13T20:27:04.485Z,11.73
2023-05-13T20:30:08.497Z,8.10
2023-05-13T20:33:12.370Z,8.53
2023-05-13T20:36:14.978Z,8.07
2023-05-13T20:39:17.829Z,5.68
2023-05-13T20:42:22.284Z,8.20
2023-05-13T20:45:24.770Z,8.27
2023-05-13T20:48:31.802Z,15.43
2023-05-13T20:51:34.458Z,9.77
2023-05-13T20:54:37.018Z,13.95
2023-05-13T20:57:39.553Z,11.73
2023-05-13T21:00:42.070Z,11.75
2023-05-13T21:03:46.266Z,9.93
2023-05-13T21:06:49.701Z,10.90
2023-05-13T21:09:52.257Z,9.20
2023-05-13T21:12:54.782Z,10.00
2023-05-13T21:15:57.508Z,9.00
2023-05-13T21:19:03.823Z,10.25
2023-05-13T21:22:06.357Z,10.43
2023-05-13T21:25:09.776Z,9.67
2023-05-13T21:28:12.288Z,9.05
2023-05-13T21:31:14.887Z,9.97
2023-05-13T21:34:18.798Z,8.93
2023-05-13T21:37:21.378Z,10.03
2023-05-13T21:40:24.121Z,9.75
2023-05-13T21:43:26.952Z,11.90
2023-05-13T21:46:29.471Z,10.10
2023-05-13T21:49:33.392Z,9.77
2023-05-13T21:52:35.916Z,9.17
2023-05-13T21:55:38.448Z,8.10
2023-05-13T21:58:41.126Z,9.17
2023-05-13T22:01:43.605Z,8.55
2023-05-13T22:04:47.503Z,10.43
2023-05-13T22:07:50.018Z,10.67
2023-05-13T22:10:52.515Z,8.33
2023-05-13T22:13:55.160Z,9.13
2023-05-13T22:17:08.417Z,12.07
2023-05-13T22:20:13.787Z,10.30
2023-05-13T22:23:16.327Z,11.13
2023-05-13T22:26:18.862Z,13.00
2023-05-13T22:29:21.447Z,9.80
2023-05-13T22:32:24.469Z,11.88
2023-05-13T22:35:29.793Z,12.93
2023-05-13T22:38:32.263Z,11.20
2023-05-13T22:41:34.845Z,10.97
2023-05-13T22:44:37.814Z,12.35
2023-05-13T22:47:40.298Z,10.30
2023-05-13T22:50:44.178Z,13.50
2023-05-13T22:53:47.088Z,9.17
2023-05-13T22:56:49.710Z,8.60
2023-05-13T22:59:52.237Z,11.82
2023-05-13T23:02:54.768Z,9.73
2023-05-13T23:05:58.666Z,10.87
2023-05-13T23:09:01.685Z,9.90
2023-05-13T23:12:04.467Z,8.90
2023-05-13T23:15:10.580Z,10.63
2023-05-13T23:18:13.303Z,9.37
2023-05-13T23:21:17.344Z,11.02
2023-05-13T23:24:19.903Z,9.17
2023-05-13T23:27:22.481Z,13.80
2023-05-13T23:30:25.254Z,10.50
2023-05-13T23:33:28.238Z,10.00
2023-05-13T23:36:32.410Z,8.48
2023-05-13T23:39:35.157Z,9.57
2023-05-13T23:42:37.748Z,10.25
2023-05-13T23:45:40.324Z,11.03
2023-05-13T23:48:43.037Z,10.43
2023-05-13T23:51:46.953Z,8.20
2023-05-13T23:54:49.512Z,10.97
2023-05-13T23:57:52.174Z,7.97
